sensor_id;sensor_type;location;lat;lon;timestamp;pressure;altitude;pressure_sealevel;temperature;humidity
6393;BME280;3229;42.674;23.282;2023-09-08T00:01:16;95144.03;;;20.51;79.65
6393;BME280;3229;42.674;23.282;2023-09-08T00:03:43;95147.00;;;20.48;80.15
6393;BME280;3229;42.674;23.282;2023-09-08T00:06:10;95136.09;;;20.38;80.16
6393;BME280;3229;42.674;23.282;2023-09-08T00:08:36;95144.47;;;20.34;80.62
6393;BME280;3229;42.674;23.282;2023-09-08T00:11:03;95146.06;;;20.35;81.09
6393;BME280;3229;42.674;23.282;2023-09-08T00:13:34;95138.03;;;20.29;81.14
6393;BME280;3229;42.674;23.282;2023-09-08T00:16:00;95127.00;;;20.27;80.59
6393;BME280;3229;42.674;23.282;2023-09-08T00:18:27;95144.59;;;20.25;80.21
6393;BME280;3229;42.674;23.282;2023-09-08T00:20:54;95135.38;;;20.23;78.82
6393;BME280;3229;42.674;23.282;2023-09-08T00:23:20;95143.53;;;20.20;78.00
6393;BME280;3229;42.674;23.282;2023-09-08T00:25:49;95131.97;;;20.22;77.70
6393;BME280;3229;42.674;23.282;2023-09-08T00:28:16;95125.53;;;20.18;75.16
6393;BME280;3229;42.674;23.282;2023-09-08T00:30:44;95116.50;;;20.14;75.52
6393;BME280;3229;42.674;23.282;2023-09-08T00:33:11;95126.09;;;20.14;74.72
6393;BME280;3229;42.674;23.282;2023-09-08T00:35:39;95125.28;;;20.13;73.87
6393;BME280;3229;42.674;23.282;2023-09-08T00:38:05;95125.09;;;20.15;73.87
6393;BME280;3229;42.674;23.282;2023-09-08T00:41:04;95123.50;;;20.14;73.96
6393;BME280;3229;42.674;23.282;2023-09-08T00:43:44;95123.69;;;20.12;73.23
6393;BME280;3229;42.674;23.282;2023-09-08T00:46:12;95128.25;;;20.10;72.77
6393;BME280;3229;42.674;23.282;2023-09-08T00:48:39;95127.03;;;20.06;72.52
6393;BME280;3229;42.674;23.282;2023-09-08T00:51:06;95121.47;;;20.09;72.57
6393;BME280;3229;42.674;23.282;2023-09-08T00:53:35;95124.28;;;20.14;72.40
6393;BME280;3229;42.674;23.282;2023-09-08T00:56:02;95119.91;;;20.15;72.63
6393;BME280;3229;42.674;23.282;2023-09-08T00:58:29;95114.91;;;20.13;71.73
6393;BME280;3229;42.674;23.282;2023-09-08T01:00:56;95108.91;;;20.13;71.55
6393;BME280;3229;42.674;23.282;2023-09-08T01:03:25;95117.25;;;20.08;71.66
6393;BME280;3229;42.674;23.282;2023-09-08T01:05:52;95121.91;;;20.13;72.00
6393;BME280;3229;42.674;23.282;2023-09-08T01:08:19;95126.28;;;20.12;72.39
6393;BME280;3229;42.674;23.282;2023-09-08T01:10:46;95124.50;;;20.13;72.52
6393;BME280;3229;42.674;23.282;2023-09-08T01:13:13;95112.47;;;20.12;72.10
6393;BME280;3229;42.674;23.282;2023-09-08T01:15:40;95124.66;;;20.11;72.30
6393;BME280;3229;42.674;23.282;2023-09-08T01:18:07;95115.47;;;20.09;71.78
6393;BME280;3229;42.674;23.282;2023-09-08T01:23:50;95119.72;;;20.16;71.85
6393;BME280;3229;42.674;23.282;2023-09-08T01:26:27;95120.91;;;20.14;72.16
6393;BME280;3229;42.674;23.282;2023-09-08T01:28:57;95113.13;;;20.14;72.09
6393;BME280;3229;42.674;23.282;2023-09-08T01:31:25;95112.91;;;20.15;72.36
6393;BME280;3229;42.674;23.282;2023-09-08T01:33:52;95111.13;;;20.16;72.23
6393;BME280;3229;42.674;23.282;2023-09-08T01:36:19;95106.72;;;20.16;72.60
6393;BME280;3229;42.674;23.282;2023-09-08T01:38:46;95034.88;;;19.74;72.64
6393;BME280;3229;42.674;23.282;2023-09-08T01:41:13;95106.72;;;20.16;73.11
6393;BME280;3229;42.674;23.282;2023-09-08T01:43:41;95099.94;;;20.15;73.65
6393;BME280;3229;42.674;23.282;2023-09-08T01:46:08;95098.09;;;20.09;73.81
6393;BME280;3229;42.674;23.282;2023-09-08T01:48:34;95095.84;;;20.06;74.11
6393;BME280;3229;42.674;23.282;2023-09-08T01:51:01;95094.81;;;20.00;74.36
6393;BME280;3229;42.674;23.282;2023-09-08T01:53:28;95105.19;;;20.00;74.53
6393;BME280;3229;42.674;23.282;2023-09-08T01:55:55;95097.84;;;20.04;74.49
6393;BME280;3229;42.674;23.282;2023-09-08T02:01:38;95103.16;;;19.96;75.46
6393;BME280;3229;42.674;23.282;2023-09-08T02:04:05;95068.16;;;19.70;76.17
6393;BME280;3229;42.674;23.282;2023-09-08T02:06:32;95094.88;;;19.86;76.80
6393;BME280;3229;42.674;23.282;2023-09-08T02:08:59;95094.88;;;19.86;77.28
6393;BME280;3229;42.674;23.282;2023-09-08T02:11:25;95098.00;;;19.81;77.70
6393;BME280;3229;42.674;23.282;2023-09-08T02:13:52;95104.50;;;19.70;78.76
6393;BME280;3229;42.674;23.282;2023-09-08T02:16:19;95105.50;;;19.69;78.66
6393;BME280;3229;42.674;23.282;2023-09-08T02:18:47;95044.63;;;19.36;78.88
6393;BME280;3229;42.674;23.282;2023-09-08T02:21:14;95095.13;;;19.69;79.10
6393;BME280;3229;42.674;23.282;2023-09-08T02:23:41;95065.53;;;19.49;79.68
6393;BME280;3229;42.674;23.282;2023-09-08T02:26:07;95090.66;;;19.63;80.25
6393;BME280;3229;42.674;23.282;2023-09-08T02:28:34;95090.97;;;19.60;80.71
6393;BME280;3229;42.674;23.282;2023-09-08T02:31:01;95085.97;;;19.59;81.11
6393;BME280;3229;42.674;23.282;2023-09-08T02:33:28;95087.97;;;19.57;81.52
6393;BME280;3229;42.674;23.282;2023-09-08T02:36:01;95085.72;;;19.53;81.86
6393;BME280;3229;42.674;23.282;2023-09-08T02:38:28;95076.69;;;19.49;82.20
6393;BME280;3229;42.674;23.282;2023-09-08T02:40:55;95085.28;;;19.50;82.65
6393;BME280;3229;42.674;23.282;2023-09-08T02:43:22;95071.06;;;19.46;82.97
6393;BME280;3229;42.674;23.282;2023-09-08T02:45:49;95075.66;;;19.44;83.72
6393;BME280;3229;42.674;23.282;2023-09-08T02:48:16;95083.19;;;19.39;84.76
6393;BME280;3229;42.674;23.282;2023-09-08T02:50:43;95082.75;;;19.35;85.81
6393;BME280;3229;42.674;23.282;2023-09-08T02:53:12;95086.28;;;19.34;85.91
6393;BME280;3229;42.674;23.282;2023-09-08T02:55:38;95085.25;;;19.28;86.52
6393;BME280;3229;42.674;23.282;2023-09-08T02:58:05;95085.78;;;19.24;87.57
6393;BME280;3229;42.674;23.282;2023-09-08T03:00:32;95081.78;;;19.21;87.63
6393;BME280;3229;42.674;23.282;2023-09-08T03:02:59;95084.28;;;19.15;88.73
6393;BME280;3229;42.674;23.282;2023-09-08T03:05:25;95077.50;;;19.14;88.51
6393;BME280;3229;42.674;23.282;2023-09-08T03:07:52;95081.44;;;19.10;89.17
6393;BME280;3229;42.674;23.282;2023-09-08T03:10:20;95080.44;;;19.11;89.73
6393;BME280;3229;42.674;23.282;2023-09-08T03:12:47;95079.00;;;19.08;89.65
6393;BME280;3229;42.674;23.282;2023-09-08T03:15:14;95075.34;;;19.02;90.62
6393;BME280;3229;42.674;23.282;2023-09-08T03:17:41;95079.53;;;19.03;90.64
6393;BME280;3229;42.674;23.282;2023-09-08T03:20:10;95078.28;;;18.99;91.00
6393;BME280;3229;42.674;23.282;2023-09-08T03:22:38;95074.66;;;18.94;91.19
6393;BME280;3229;42.674;23.282;2023-09-08T03:25:05;95074.19;;;18.90;91.78
6393;BME280;3229;42.674;23.282;2023-09-08T03:27:34;95079.13;;;18.85;92.56
6393;BME280;3229;42.674;23.282;2023-09-08T03:30:01;95083.84;;;18.82;92.43
6393;BME280;3229;42.674;23.282;2023-09-08T03:32:30;95080.00;;;18.77;92.43
6393;BME280;3229;42.674;23.282;2023-09-08T03:34:56;95092.59;;;18.80;92.75
6393;BME280;3229;42.674;23.282;2023-09-08T03:37:23;95083.94;;;18.73;92.86
6393;BME280;3229;42.674;23.282;2023-09-08T03:39:51;95091.69;;;18.73;93.06
6393;BME280;3229;42.674;23.282;2023-09-08T03:42:18;95093.88;;;18.70;93.47
6393;BME280;3229;42.674;23.282;2023-09-08T03:44:46;95089.00;;;18.67;93.39
6393;BME280;3229;42.674;23.282;2023-09-08T03:47:13;95100.16;;;18.67;93.71
6393;BME280;3229;42.674;23.282;2023-09-08T03:49:40;95101.97;;;18.67;93.58
6393;BME280;3229;42.674;23.282;2023-09-08T03:52:06;95094.38;;;18.65;94.53
6393;BME280;3229;42.674;23.282;2023-09-08T03:54:33;95094.88;;;18.61;94.98
6393;BME280;3229;42.674;23.282;2023-09-08T03:57:00;95081.31;;;18.44;94.97
6393;BME280;3229;42.674;23.282;2023-09-08T03:59:27;95101.91;;;18.52;95.22
6393;BME280;3229;42.674;23.282;2023-09-08T04:01:55;95091.94;;;18.49;95.30
6393;BME280;3229;42.674;23.282;2023-09-08T04:04:21;95096.94;;;18.50;95.31
6393;BME280;3229;42.674;23.282;2023-09-08T04:06:48;95098.38;;;18.53;94.95
6393;BME280;3229;42.674;23.282;2023-09-08T04:09:15;95099.97;;;18.54;95.12
6393;BME280;3229;42.674;23.282;2023-09-08T04:11:42;95096.94;;;18.50;94.84
6393;BME280;3229;42.674;23.282;2023-09-08T04:14:08;95103.72;;;18.51;94.65
6393;BME280;3229;42.674;23.282;2023-09-08T04:16:35;95101.13;;;18.51;94.31
6393;BME280;3229;42.674;23.282;2023-09-08T04:19:03;95088.69;;;18.47;94.12
6393;BME280;3229;42.674;23.282;2023-09-08T04:21:30;95095.78;;;18.53;93.76
6393;BME280;3229;42.674;23.282;2023-09-08T04:23:57;95097.38;;;18.54;93.74
6393;BME280;3229;42.674;23.282;2023-09-08T04:26:24;95099.78;;;18.55;93.81
6393;BME280;3229;42.674;23.282;2023-09-08T04:28:55;95097.38;;;18.54;93.77
6393;BME280;3229;42.674;23.282;2023-09-08T04:31:24;95102.75;;;18.52;93.63
6393;BME280;3229;42.674;23.282;2023-09-08T04:33:51;95108.19;;;18.58;93.59
6393;BME280;3229;42.674;23.282;2023-09-08T04:36:20;95103.63;;;18.60;93.85
6393;BME280;3229;42.674;23.282;2023-09-08T04:38:46;95111.88;;;18.63;93.65
6393;BME280;3229;42.674;23.282;2023-09-08T04:41:13;95112.00;;;18.70;93.38
6393;BME280;3229;42.674;23.282;2023-09-08T04:43:40;95104.13;;;18.78;92.96
6393;BME280;3229;42.674;23.282;2023-09-08T04:46:07;95105.22;;;18.84;93.27
6393;BME280;3229;42.674;23.282;2023-09-08T04:48:33;95112.72;;;18.93;92.94
6393;BME280;3229;42.674;23.282;2023-09-08T04:51:00;95106.66;;;19.01;92.67
6393;BME280;3229;42.674;23.282;2023-09-08T04:53:29;95104.66;;;19.03;92.69
6393;BME280;3229;42.674;23.282;2023-09-08T04:55:55;95107.44;;;19.16;92.35
6393;BME280;3229;42.674;23.282;2023-09-08T04:58:22;95098.50;;;19.19;91.89
6393;BME280;3229;42.674;23.282;2023-09-08T05:00:49;95109.84;;;19.33;91.80
6393;BME280;3229;42.674;23.282;2023-09-08T05:03:16;95108.56;;;19.43;91.39
6393;BME280;3229;42.674;23.282;2023-09-08T05:05:44;95110.94;;;19.60;91.11
6393;BME280;3229;42.674;23.282;2023-09-08T05:08:11;95116.63;;;19.85;90.22
6393;BME280;3229;42.674;23.282;2023-09-08T05:10:39;95107.28;;;20.12;88.97
6393;BME280;3229;42.674;23.282;2023-09-08T05:13:06;95112.56;;;20.46;87.34
6393;BME280;3229;42.674;23.282;2023-09-08T05:15:32;95109.22;;;20.80;85.95
6393;BME280;3229;42.674;23.282;2023-09-08T05:17:59;95110.06;;;21.16;83.63
6393;BME280;3229;42.674;23.282;2023-09-08T05:20:26;95119.06;;;21.54;81.78
6393;BME280;3229;42.674;23.282;2023-09-08T05:22:53;95118.13;;;21.89;79.21
6393;BME280;3229;42.674;23.282;2023-09-08T05:25:19;95089.97;;;22.12;77.22
6393;BME280;3229;42.674;23.282;2023-09-08T05:27:48;95126.66;;;22.64;74.98
6393;BME280;3229;42.674;23.282;2023-09-08T05:30:14;95118.22;;;22.95;72.20
6393;BME280;3229;42.674;23.282;2023-09-08T05:32:41;95109.13;;;23.24;70.55
6393;BME280;3229;42.674;23.282;2023-09-08T05:35:08;95054.72;;;23.14;69.34
6393;BME280;3229;42.674;23.282;2023-09-08T05:37:35;95119.06;;;23.92;67.55
6393;BME280;3229;42.674;23.282;2023-09-08T05:40:02;95115.84;;;24.21;65.81
6393;BME280;3229;42.674;23.282;2023-09-08T05:42:29;95124.56;;;24.47;64.71
6393;BME280;3229;42.674;23.282;2023-09-08T05:44:58;95117.06;;;24.75;63.30
6393;BME280;3229;42.674;23.282;2023-09-08T05:47:24;95118.03;;;24.99;62.61
6393;BME280;3229;42.674;23.282;2023-09-08T05:49:51;95116.72;;;25.15;61.33
6393;BME280;3229;42.674;23.282;2023-09-08T05:52:18;95128.78;;;25.35;60.56
6393;BME280;3229;42.674;23.282;2023-09-08T05:54:45;95132.41;;;25.34;59.10
6393;BME280;3229;42.674;23.282;2023-09-08T05:57:11;95125.56;;;25.33;58.68
6393;BME280;3229;42.674;23.282;2023-09-08T05:59:38;95125.66;;;25.26;57.76
6393;BME280;3229;42.674;23.282;2023-09-08T06:02:06;95134.66;;;25.30;58.29
6393;BME280;3229;42.674;23.282;2023-09-08T06:04:33;95126.59;;;25.32;56.37
6393;BME280;3229;42.674;23.282;2023-09-08T06:07:00;95121.94;;;25.15;55.75
6393;BME280;3229;42.674;23.282;2023-09-08T06:09:26;95133.81;;;25.18;55.53
6393;BME280;3229;42.674;23.282;2023-09-08T06:11:53;95129.00;;;25.15;56.33
6393;BME280;3229;42.674;23.282;2023-09-08T06:14:20;95127.31;;;25.20;55.71
6393;BME280;3229;42.674;23.282;2023-09-08T06:16:47;95114.03;;;25.22;55.28
6393;BME280;3229;42.674;23.282;2023-09-08T06:19:15;95136.69;;;25.46;54.84
6393;BME280;3229;42.674;23.282;2023-09-08T06:21:41;95138.66;;;25.51;54.64
6393;BME280;3229;42.674;23.282;2023-09-08T06:24:08;95084.06;;;25.18;54.13
6393;BME280;3229;42.674;23.282;2023-09-08T06:26:36;95139.38;;;25.76;54.31
6393;BME280;3229;42.674;23.282;2023-09-08T06:29:03;95142.13;;;26.00;54.18
6393;BME280;3229;42.674;23.282;2023-09-08T06:31:33;95148.34;;;26.17;52.17
6393;BME280;3229;42.674;23.282;2023-09-08T06:33:59;95146.19;;;26.26;51.14
6393;BME280;3229;42.674;23.282;2023-09-08T06:36:30;95150.88;;;26.36;50.27
6393;BME280;3229;42.674;23.282;2023-09-08T06:38:57;95152.03;;;26.40;49.82
6393;BME280;3229;42.674;23.282;2023-09-08T06:41:23;95151.16;;;26.46;49.73
6393;BME280;3229;42.674;23.282;2023-09-08T06:43:52;95162.13;;;26.66;49.00
6393;BME280;3229;42.674;23.282;2023-09-08T06:46:19;95154.81;;;26.68;48.51
6393;BME280;3229;42.674;23.282;2023-09-08T06:48:46;95154.38;;;26.71;47.97
6393;BME280;3229;42.674;23.282;2023-09-08T06:51:12;95159.31;;;26.91;48.11
6393;BME280;3229;42.674;23.282;2023-09-08T06:53:43;95161.03;;;27.21;47.35
6393;BME280;3229;42.674;23.282;2023-09-08T06:56:09;95156.88;;;27.48;46.13
6393;BME280;3229;42.674;23.282;2023-09-08T06:58:36;95167.56;;;27.70;44.68
6393;BME280;3229;42.674;23.282;2023-09-08T07:01:03;95165.41;;;27.79;44.80
6393;BME280;3229;42.674;23.282;2023-09-08T07:03:30;95155.09;;;27.89;43.52
6393;BME280;3229;42.674;23.282;2023-09-08T07:06:02;95148.56;;;27.92;43.96
6393;BME280;3229;42.674;23.282;2023-09-08T07:08:29;95161.94;;;27.90;42.78
6393;BME280;3229;42.674;23.282;2023-09-08T07:10:57;95162.97;;;27.89;43.41
6393;BME280;3229;42.674;23.282;2023-09-08T07:13:24;95161.16;;;27.90;43.05
6393;BME280;3229;42.674;23.282;2023-09-08T07:15:50;95149.84;;;27.89;42.62
6393;BME280;3229;42.674;23.282;2023-09-08T07:18:17;95162.63;;;28.14;42.83
6393;BME280;3229;42.674;23.282;2023-09-08T07:20:46;95165.53;;;28.30;42.84
6393;BME280;3229;42.674;23.282;2023-09-08T07:23:13;95155.63;;;28.48;42.40
6393;BME280;3229;42.674;23.282;2023-09-08T07:25:40;95162.81;;;28.70;42.42
6393;BME280;3229;42.674;23.282;2023-09-08T07:28:08;95154.59;;;28.83;40.41
6393;BME280;3229;42.674;23.282;2023-09-08T07:30:35;95160.56;;;28.79;40.33
6393;BME280;3229;42.674;23.282;2023-09-08T07:33:01;95154.69;;;28.71;40.37
6393;BME280;3229;42.674;23.282;2023-09-08T07:35:30;95156.69;;;28.64;40.49
6393;BME280;3229;42.674;23.282;2023-09-08T07:37:56;95152.78;;;28.50;41.19
6393;BME280;3229;42.674;23.282;2023-09-08T07:40:23;95156.53;;;28.54;40.40
6393;BME280;3229;42.674;23.282;2023-09-08T07:42:50;95129.03;;;28.16;41.14
6393;BME280;3229;42.674;23.282;2023-09-08T07:45:18;95147.19;;;28.46;41.18
6393;BME280;3229;42.674;23.282;2023-09-08T07:47:45;95165.22;;;28.55;41.14
6393;BME280;3229;42.674;23.282;2023-09-08T07:50:20;95137.59;;;28.40;40.86
6393;BME280;3229;42.674;23.282;2023-09-08T07:52:47;95145.50;;;28.57;40.52
6393;BME280;3229;42.674;23.282;2023-09-08T07:55:15;95145.81;;;28.61;40.62
6393;BME280;3229;42.674;23.282;2023-09-08T07:57:42;95154.75;;;28.77;40.76
6393;BME280;3229;42.674;23.282;2023-09-08T08:00:10;95151.72;;;28.68;40.53
6393;BME280;3229;42.674;23.282;2023-09-08T08:02:42;95148.53;;;28.66;40.54
6393;BME280;3229;42.674;23.282;2023-09-08T08:05:09;95151.88;;;28.61;40.63
6393;BME280;3229;42.674;23.282;2023-09-08T08:07:37;95146.59;;;28.44;40.53
6393;BME280;3229;42.674;23.282;2023-09-08T08:10:05;95144.13;;;28.09;41.26
6393;BME280;3229;42.674;23.282;2023-09-08T08:12:35;95127.59;;;27.97;41.74
6393;BME280;3229;42.674;23.282;2023-09-08T08:15:03;95140.00;;;28.13;42.02
6393;BME280;3229;42.674;23.282;2023-09-08T08:17:31;95132.81;;;28.09;41.54
6393;BME280;3229;42.674;23.282;2023-09-08T08:19:59;95113.25;;;27.88;41.56
6393;BME280;3229;42.674;23.282;2023-09-08T08:22:32;95134.66;;;28.08;41.06
6393;BME280;3229;42.674;23.282;2023-09-08T08:25:00;95124.78;;;28.15;41.25
6393;BME280;3229;42.674;23.282;2023-09-08T08:27:27;95141.91;;;28.18;40.74
6393;BME280;3229;42.674;23.282;2023-09-08T08:29:56;95139.13;;;28.08;41.26
6393;BME280;3229;42.674;23.282;2023-09-08T08:32:24;95136.00;;;28.11;41.52
6393;BME280;3229;42.674;23.282;2023-09-08T08:34:51;95135.09;;;28.34;41.65
6393;BME280;3229;42.674;23.282;2023-09-08T08:37:19;95154.34;;;28.51;40.99
6393;BME280;3229;42.674;23.282;2023-09-08T08:39:46;95142.66;;;28.30;41.16
6393;BME280;3229;42.674;23.282;2023-09-08T08:42:13;95125.44;;;28.22;41.06
6393;BME280;3229;42.674;23.282;2023-09-08T08:44:40;95116.78;;;28.10;41.01
6393;BME280;3229;42.674;23.282;2023-09-08T08:47:08;95103.69;;;27.70;41.92
6393;BME280;3229;42.674;23.282;2023-09-08T08:49:36;95116.66;;;27.60;42.58
6393;BME280;3229;42.674;23.282;2023-09-08T08:52:05;95117.84;;;27.40;43.15
6393;BME280;3229;42.674;23.282;2023-09-08T08:54:38;95104.69;;;27.40;42.72
6393;BME280;3229;42.674;23.282;2023-09-08T08:57:05;95109.22;;;27.57;42.15
6393;BME280;3229;42.674;23.282;2023-09-08T08:59:33;95120.50;;;27.69;42.12
6393;BME280;3229;42.674;23.282;2023-09-08T09:02:01;95113.78;;;27.61;41.89
6393;BME280;3229;42.674;23.282;2023-09-08T09:04:29;95120.69;;;27.39;42.30
6393;BME280;3229;42.674;23.282;2023-09-08T09:06:56;95112.63;;;27.17;42.62
6393;BME280;3229;42.674;23.282;2023-09-08T09:09:23;95118.41;;;27.07;43.25
6393;BME280;3229;42.674;23.282;2023-09-08T09:11:52;95123.94;;;26.82;43.24
6393;BME280;3229;42.674;23.282;2023-09-08T09:14:19;95125.06;;;26.63;43.69
6393;BME280;3229;42.674;23.282;2023-09-08T09:16:46;95127.09;;;26.72;43.30
6393;BME280;3229;42.674;23.282;2023-09-08T09:19:18;95134.66;;;26.69;43.48
6393;BME280;3229;42.674;23.282;2023-09-08T09:21:51;95129.94;;;26.59;43.08
6393;BME280;3229;42.674;23.282;2023-09-08T09:24:29;95121.41;;;26.52;43.92
6393;BME280;3229;42.674;23.282;2023-09-08T09:26:57;95130.75;;;26.71;43.79
6393;BME280;3229;42.674;23.282;2023-09-08T09:29:24;95117.53;;;26.78;42.94
6393;BME280;3229;42.674;23.282;2023-09-08T09:31:51;95131.78;;;26.59;43.60
6393;BME280;3229;42.674;23.282;2023-09-08T09:34:19;95118.88;;;26.45;43.50
6393;BME280;3229;42.674;23.282;2023-09-08T09:36:47;95053.53;;;25.90;43.74
6393;BME280;3229;42.674;23.282;2023-09-08T09:39:19;95115.41;;;26.33;44.00
6393;BME280;3229;42.674;23.282;2023-09-08T09:41:47;95119.28;;;26.31;43.88
6393;BME280;3229;42.674;23.282;2023-09-08T09:44:15;95117.22;;;26.33;43.67
6393;BME280;3229;42.674;23.282;2023-09-08T09:46:45;95105.59;;;26.28;43.96
6393;BME280;3229;42.674;23.282;2023-09-08T09:49:12;95109.34;;;26.21;44.38
6393;BME280;3229;42.674;23.282;2023-09-08T09:51:40;95107.53;;;26.33;44.65
6393;BME280;3229;42.674;23.282;2023-09-08T09:54:10;95106.00;;;26.44;44.42
6393;BME280;3229;42.674;23.282;2023-09-08T09:56:45;95103.22;;;26.39;44.94
6393;BME280;3229;42.674;23.282;2023-09-08T09:59:15;95103.56;;;26.31;44.65
6393;BME280;3229;42.674;23.282;2023-09-08T10:01:44;95087.31;;;26.10;45.07
6393;BME280;3229;42.674;23.282;2023-09-08T10:04:13;95105.81;;;26.27;45.71
6393;BME280;3229;42.674;23.282;2023-09-08T10:06:42;95097.84;;;26.34;45.36
6393;BME280;3229;42.674;23.282;2023-09-08T10:09:10;95089.06;;;26.28;45.74
6393;BME280;3229;42.674;23.282;2023-09-08T10:11:42;95073.44;;;26.21;45.60
6393;BME280;3229;42.674;23.282;2023-09-08T10:14:12;95093.19;;;26.36;45.63
6393;BME280;3229;42.674;23.282;2023-09-08T10:16:43;95084.50;;;26.23;45.88
6393;BME280;3229;42.674;23.282;2023-09-08T10:19:13;95092.81;;;26.32;45.84
6393;BME280;3229;42.674;23.282;2023-09-08T10:21:42;95098.13;;;26.44;45.54
6393;BME280;3229;42.674;23.282;2023-09-08T10:24:18;95085.88;;;26.38;45.98
6393;BME280;3229;42.674;23.282;2023-09-08T10:27:00;95081.09;;;26.35;45.97
6393;BME280;3229;42.674;23.282;2023-09-08T10:29:29;95080.41;;;26.27;46.71
6393;BME280;3229;42.674;23.282;2023-09-08T10:31:58;95077.78;;;26.27;46.51
6393;BME280;3229;42.674;23.282;2023-09-08T10:34:26;95083.97;;;26.45;46.34
6393;BME280;3229;42.674;23.282;2023-09-08T10:36:54;95077.38;;;26.54;46.02
6393;BME280;3229;42.674;23.282;2023-09-08T10:39:31;95074.53;;;26.44;46.34
6393;BME280;3229;42.674;23.282;2023-09-08T10:42:19;95075.81;;;26.23;46.46
6393;BME280;3229;42.674;23.282;2023-09-08T10:44:56;95068.63;;;26.18;47.08
6393;BME280;3229;42.674;23.282;2023-09-08T10:47:25;95076.47;;;26.07;47.21
6393;BME280;3229;42.674;23.282;2023-09-08T10:49:52;95076.09;;;25.91;47.37
6393;BME280;3229;42.674;23.282;2023-09-08T10:52:23;95072.41;;;25.81;48.44
6393;BME280;3229;42.674;23.282;2023-09-08T10:54:51;95076.41;;;25.83;48.08
6393;BME280;3229;42.674;23.282;2023-09-08T10:57:20;95060.38;;;25.91;47.83
6393;BME280;3229;42.674;23.282;2023-09-08T10:59:51;95058.09;;;25.95;47.29
6393;BME280;3229;42.674;23.282;2023-09-08T11:02:41;95073.88;;;26.18;47.06
6393;BME280;3229;42.674;23.282;2023-09-08T11:05:10;95057.56;;;26.16;47.27
6393;BME280;3229;42.674;23.282;2023-09-08T11:07:37;95056.44;;;26.24;46.68
6393;BME280;3229;42.674;23.282;2023-09-08T11:10:05;95071.41;;;26.35;46.37
6393;BME280;3229;42.674;23.282;2023-09-08T11:12:32;95056.00;;;26.27;46.78
6393;BME280;3229;42.674;23.282;2023-09-08T11:14:59;95065.66;;;26.15;47.02
6393;BME280;3229;42.674;23.282;2023-09-08T11:17:30;95052.44;;;26.10;47.31
6393;BME280;3229;42.674;23.282;2023-09-08T11:19:58;95052.88;;;26.07;47.81
6393;BME280;3229;42.674;23.282;2023-09-08T11:22:25;95046.13;;;25.99;47.34
6393;BME280;3229;42.674;23.282;2023-09-08T11:24:53;95043.50;;;25.99;47.68
6393;BME280;3229;42.674;23.282;2023-09-08T11:27:22;95033.25;;;25.97;47.80
6393;BME280;3229;42.674;23.282;2023-09-08T11:29:50;95045.84;;;26.19;47.26
6393;BME280;3229;42.674;23.282;2023-09-08T11:32:16;95041.06;;;26.39;46.81
6393;BME280;3229;42.674;23.282;2023-09-08T11:34:43;95036.97;;;26.43;46.43
6393;BME280;3229;42.674;23.282;2023-09-08T11:37:13;95034.25;;;26.38;46.84
6393;BME280;3229;42.674;23.282;2023-09-08T11:39:42;95032.75;;;26.31;47.21
6393;BME280;3229;42.674;23.282;2023-09-08T11:42:10;95041.66;;;26.30;47.69
6393;BME280;3229;42.674;23.282;2023-09-08T11:44:37;95037.50;;;26.34;46.81
6393;BME280;3229;42.674;23.282;2023-09-08T11:47:06;95035.94;;;26.21;47.58
6393;BME280;3229;42.674;23.282;2023-09-08T11:49:34;95044.00;;;26.19;47.80
6393;BME280;3229;42.674;23.282;2023-09-08T11:52:01;95023.94;;;26.25;47.48
6393;BME280;3229;42.674;23.282;2023-09-08T11:54:31;95013.44;;;26.25;47.52
6393;BME280;3229;42.674;23.282;2023-09-08T11:56:59;95021.56;;;26.35;47.51
6393;BME280;3229;42.674;23.282;2023-09-08T11:59:27;94994.88;;;26.26;46.82
6393;BME280;3229;42.674;23.282;2023-09-08T12:01:54;95027.06;;;26.45;47.36
6393;BME280;3229;42.674;23.282;2023-09-08T12:04:21;95026.28;;;26.45;47.41
6393;BME280;3229;42.674;23.282;2023-09-08T12:06:48;95022.84;;;26.44;47.10
6393;BME280;3229;42.674;23.282;2023-09-08T12:09:16;95015.44;;;26.53;46.79
6393;BME280;3229;42.674;23.282;2023-09-08T12:11:45;95013.06;;;26.51;46.15
6393;BME280;3229;42.674;23.282;2023-09-08T12:14:13;95008.00;;;26.50;47.04
6393;BME280;3229;42.674;23.282;2023-09-08T12:16:41;94982.22;;;26.35;46.92
6393;BME280;3229;42.674;23.282;2023-09-08T12:19:18;95009.75;;;26.56;46.81
6393;BME280;3229;42.674;23.282;2023-09-08T12:21:56;95012.91;;;26.58;46.07
6393;BME280;3229;42.674;23.282;2023-09-08T12:24:47;95014.28;;;26.49;46.34
6393;BME280;3229;42.674;23.282;2023-09-08T12:27:16;95003.09;;;26.42;46.02
6393;BME280;3229;42.674;23.282;2023-09-08T12:29:52;94998.88;;;26.41;46.70
6393;BME280;3229;42.674;23.282;2023-09-08T12:32:19;94994.22;;;26.31;46.75
6393;BME280;3229;42.674;23.282;2023-09-08T12:34:46;95002.66;;;26.21;46.72
6393;BME280;3229;42.674;23.282;2023-09-08T12:37:13;95003.66;;;26.32;47.19
6393;BME280;3229;42.674;23.282;2023-09-08T12:39:40;95001.06;;;26.44;45.89
6393;BME280;3229;42.674;23.282;2023-09-08T12:42:06;94991.81;;;26.53;46.20
6393;BME280;3229;42.674;23.282;2023-09-08T12:44:34;94988.41;;;26.64;45.57
6393;BME280;3229;42.674;23.282;2023-09-08T12:47:01;94977.41;;;26.79;45.35
6393;BME280;3229;42.674;23.282;2023-09-08T12:49:28;94986.28;;;26.90;45.54
6393;BME280;3229;42.674;23.282;2023-09-08T12:51:55;94985.38;;;26.84;45.21
6393;BME280;3229;42.674;23.282;2023-09-08T12:54:22;94981.88;;;26.67;44.65
6393;BME280;3229;42.674;23.282;2023-09-08T12:56:48;94992.38;;;26.67;45.62
6393;BME280;3229;42.674;23.282;2023-09-08T12:59:16;94988.41;;;26.64;45.47
6393;BME280;3229;42.674;23.282;2023-09-08T13:01:44;94981.78;;;26.73;45.29
6393;BME280;3229;42.674;23.282;2023-09-08T13:04:11;94988.94;;;26.78;45.62
6393;BME280;3229;42.674;23.282;2023-09-08T13:06:38;94972.75;;;26.69;45.27
6393;BME280;3229;42.674;23.282;2023-09-08T13:09:04;94980.28;;;26.66;45.89
6393;BME280;3229;42.674;23.282;2023-09-08T13:11:33;94976.97;;;26.70;45.57
6393;BME280;3229;42.674;23.282;2023-09-08T13:14:00;94976.63;;;26.79;45.76
6393;BME280;3229;42.674;23.282;2023-09-08T13:16:30;94989.97;;;26.77;45.61
6393;BME280;3229;42.674;23.282;2023-09-08T13:18:58;95000.78;;;26.81;45.24
6393;BME280;3229;42.674;23.282;2023-09-08T13:21:26;94990.78;;;26.66;45.33